Time;durP1;ratioP1;P1;durP2;ratioP2;P2;SDS_P1;SDS_P2;PMS_P1;PMS_P2;Temp;Humidity;BMP_temperature;BMP_pressure;BME280_temperature;BME280_humidity;BME280_pressure;Samples;Min_cycle;Max_cycle;Signal;HPM_P1;HPM_P2
2023/03/18 00:01:27;;;;;;;3.83;3.17;;;13.10;99.90;;;;;;4997158;28;20435;-70
2023/03/18 00:03:55;;;;;;;5.40;3.03;;;13.10;99.90;;;;;;5031001;28;20427;-70
2023/03/18 00:06:26;;;;;;;5.30;3.33;;;13.10;99.90;;;;;;5000629;28;20447;-70
2023/03/18 00:08:52;;;;;;;4.83;3.30;;;13.10;99.90;;;;;;5050937;28;20439;-70
2023/03/18 00:11:20;;;;;;;2.97;2.40;;;13.00;99.90;;;;;;5016790;28;20915;-70
2023/03/18 00:13:47;;;;;;;5.57;2.90;;;13.00;99.90;;;;;;5032837;28;20507;-70
2023/03/18 00:16:14;;;;;;;5.37;3.50;;;13.00;99.90;;;;;;5016232;28;20424;-70
2023/03/18 00:18:47;;;;;;;4.37;2.90;;;13.00;99.90;;;;;;5000381;28;20446;-70
2023/03/18 00:21:13;;;;;;;4.70;3.07;;;13.00;99.90;;;;;;5032710;28;20465;-70
2023/03/18 00:23:39;;;;;;;5.33;3.53;;;13.00;99.90;;;;;;5051830;28;20966;-70
2023/03/18 00:26:10;;;;;;;4.13;2.83;;;13.00;99.90;;;;;;5028572;28;20613;-70
2023/03/18 00:28:40;;;;;;;8.20;3.50;;;13.00;99.90;;;;;;5000392;28;20811;-70
2023/03/18 00:31:09;;;;;;;4.60;2.87;;;13.00;99.90;;;;;;5000519;28;20431;-70
2023/03/18 00:33:45;;;;;;;5.17;2.97;;;13.00;99.90;;;;;;5034331;28;20531;-70
2023/03/18 00:36:24;;;;;;;4.97;3.00;;;13.00;99.90;;;;;;4984319;28;20439;-70
2023/03/18 00:38:56;;;;;;;4.00;2.57;;;13.00;99.90;;;;;;5016661;28;20441;-70
2023/03/18 00:41:28;;;;;;;4.60;3.30;;;13.00;99.90;;;;;;5034246;28;20488;-70
2023/03/18 00:43:55;;;;;;;4.77;3.30;;;13.00;99.90;;;;;;5000074;28;20536;-70
2023/03/18 00:46:26;;;;;;;6.23;2.90;;;12.90;99.90;;;;;;5016434;28;20834;-70
2023/03/18 00:48:54;;;;;;;5.80;3.10;;;12.90;99.90;;;;;;5000030;28;20434;-70
2023/03/18 00:51:24;;;;;;;6.60;3.40;;;12.90;99.90;;;;;;4999775;28;20406;-70
2023/03/18 00:53:56;;;;;;;8.03;3.30;;;12.90;99.90;;;;;;5016234;28;20443;-70
2023/03/18 00:56:29;;;;;;;4.50;3.10;;;12.90;99.90;;;;;;5036457;28;20831;-70
2023/03/18 00:58:56;;;;;;;3.90;3.27;;;12.90;99.90;;;;;;5035804;28;20439;-70
2023/03/18 01:01:26;;;;;;;6.20;3.70;;;12.90;99.90;;;;;;5019115;28;20475;-70
2023/03/18 01:03:52;;;;;;;5.30;3.50;;;12.90;99.90;;;;;;5003196;28;20452;-70
2023/03/18 01:06:27;;;;;;;6.40;3.57;;;12.90;99.90;;;;;;5036039;28;20397;-70
2023/03/18 01:08:54;;;;;;;6.00;2.90;;;12.90;99.90;;;;;;5035798;28;20435;-70
2023/03/18 01:11:23;;;;;;;4.70;3.47;;;12.90;99.90;;;;;;5035256;28;20839;-70
2023/03/18 01:13:50;;;;;;;5.60;3.40;;;12.90;99.90;;;;;;5035159;28;20435;-70
2023/03/18 01:16:19;;;;;;;8.40;3.30;;;12.90;99.90;;;;;;5003166;28;20439;-70
2023/03/18 01:18:46;;;;;;;3.93;2.90;;;12.80;99.90;;;;;;5019124;28;20929;-70
2023/03/18 01:21:15;;;;;;;4.57;3.00;;;12.80;99.90;;;;;;5019126;28;20444;-70
2023/03/18 01:23:50;;;;;;;7.87;2.93;;;12.90;99.90;;;;;;5018759;28;21072;-70
2023/03/18 01:26:16;;;;;;;4.93;3.47;;;12.90;99.90;;;;;;5034768;28;20956;-70
2023/03/18 01:28:46;;;;;;;9.93;3.40;;;12.80;99.90;;;;;;5018891;28;20443;-70
2023/03/18 01:31:15;;;;;;;5.83;3.13;;;12.80;99.90;;;;;;5053403;28;20420;-70
2023/03/18 01:33:46;;;;;;;6.80;3.10;;;12.80;99.90;;;;;;5052524;28;20788;-70
2023/03/18 01:36:14;;;;;;;8.97;3.83;;;12.80;99.90;;;;;;5034758;28;20769;-70
2023/03/18 01:38:41;;;;;;;5.80;3.37;;;12.80;99.90;;;;;;5034886;28;20478;-70
2023/03/18 01:41:15;;;;;;;6.03;3.30;;;12.80;99.90;;;;;;5035052;28;20528;-70
2023/03/18 01:43:42;;;;;;;6.33;3.50;;;12.80;99.90;;;;;;5018606;28;20468;-70
2023/03/18 01:46:35;;;;;;;5.53;3.33;;;12.80;99.90;;;;;;5002669;28;20463;-70
2023/03/18 01:49:30;;;;;;;4.80;3.20;;;12.80;99.90;;;;;;5018609;28;20442;-70
2023/03/18 01:52:01;;;;;;;6.47;3.70;;;12.80;99.90;;;;;;5018463;28;20411;-70
2023/03/18 01:54:32;;;;;;;6.13;3.30;;;12.80;99.90;;;;;;5035126;28;20406;-70
2023/03/18 01:57:02;;;;;;;6.90;4.30;;;12.80;99.90;;;;;;5035193;28;20940;-70
2023/03/18 01:59:37;;;;;;;4.10;3.10;;;12.80;99.90;;;;;;5018622;28;20595;-70
2023/03/18 02:02:06;;;;;;;5.60;3.73;;;12.80;99.90;;;;;;5002160;28;20459;-70
2023/03/18 02:04:43;;;;;;;4.37;3.00;;;12.80;99.90;;;;;;5018606;28;20776;-70
2023/03/18 02:07:23;;;;;;;4.67;3.00;;;12.70;99.90;;;;;;5035284;28;20910;-70
2023/03/18 02:09:53;;;;;;;6.77;3.60;;;12.70;99.90;;;;;;5017977;28;20442;-70
2023/03/18 02:12:23;;;;;;;5.77;3.20;;;12.80;99.90;;;;;;5017933;28;20460;-70
2023/03/18 02:14:57;;;;;;;5.97;3.33;;;12.80;99.90;;;;;;5034838;28;20901;-70
2023/03/18 02:17:28;;;;;;;4.73;3.17;;;12.70;99.90;;;;;;5018178;28;20415;-70
2023/03/18 02:20:09;;;;;;;6.00;3.30;;;12.70;99.90;;;;;;5034161;28;20440;-70
2023/03/18 02:22:42;;;;;;;5.13;3.70;;;12.70;99.90;;;;;;5034158;28;20584;-70
2023/03/18 02:26:19;;;;;;;4.53;3.33;;;12.70;99.90;;;;;;5018216;28;20419;-70
2023/03/18 02:28:53;;;;;;;5.53;2.90;;;12.70;99.90;;;;;;4890077;28;20964;-70
2023/03/18 02:31:21;;;;;;;4.50;3.37;;;12.70;99.90;;;;;;4939052;28;20428;-70
2023/03/18 02:33:48;;;;;;;6.87;3.30;;;12.70;99.90;;;;;;4971090;28;20574;-70
2023/03/18 02:36:23;;;;;;;4.07;3.67;;;12.70;99.90;;;;;;4955059;28;20408;-70
2023/03/18 02:38:51;;;;;;;10.60;4.10;;;12.70;99.90;;;;;;4954449;28;20470;-70
2023/03/18 02:41:25;;;;;;;8.07;3.80;;;12.70;99.90;;;;;;4954673;28;20410;-70
2023/03/18 02:43:54;;;;;;;5.87;3.30;;;12.70;99.90;;;;;;4954784;28;20474;-70
2023/03/18 02:46:50;;;;;;;6.53;3.60;;;12.70;99.90;;;;;;4954459;28;20427;-70
2023/03/18 02:49:20;;;;;;;3.77;3.27;;;12.70;99.90;;;;;;4938866;28;20527;-70
2023/03/18 02:51:49;;;;;;;6.77;2.80;;;12.70;99.90;;;;;;4954532;28;20461;-70
2023/03/18 02:54:23;;;;;;;6.80;3.63;;;12.70;99.90;;;;;;4955176;28;20414;-70
2023/03/18 02:56:52;;;;;;;3.83;3.13;;;12.60;99.90;;;;;;4954921;28;20870;-70
2023/03/18 02:59:21;;;;;;;5.70;3.40;;;12.70;99.90;;;;;;4984003;28;20961;-70
2023/03/18 03:01:49;;;;;;;5.47;3.17;;;12.60;99.90;;;;;;5013472;28;20958;-70
2023/03/18 03:04:16;;;;;;;6.93;3.10;;;12.60;99.90;;;;;;5013681;28;20405;-70
2023/03/18 03:06:43;;;;;;;5.53;3.23;;;12.60;99.90;;;;;;5013634;28;20826;-70
2023/03/18 03:09:14;;;;;;;4.50;3.33;;;12.60;99.90;;;;;;5068593;23;20512;-72
2023/03/18 03:11:45;;;;;;;5.40;3.20;;;12.60;99.90;;;;;;5012362;28;20400;-72
2023/03/18 03:14:16;;;;;;;5.00;3.07;;;12.60;99.90;;;;;;5012460;28;20405;-72
2023/03/18 03:16:44;;;;;;;4.27;3.00;;;12.60;99.90;;;;;;4996220;28;20393;-73
2023/03/18 03:19:10;;;;;;;5.60;3.43;;;12.60;99.90;;;;;;5012101;28;20441;-73
2023/03/18 03:21:36;;;;;;;4.57;3.10;;;12.60;99.90;;;;;;4996109;28;20412;-73
2023/03/18 03:24:06;;;;;;;5.43;3.43;;;12.60;99.90;;;;;;4995677;28;21007;-73
2023/03/18 03:26:33;;;;;;;4.70;3.27;;;12.50;99.90;;;;;;4995931;28;20769;-73
2023/03/18 03:28:59;;;;;;;4.17;3.17;;;12.50;99.90;;;;;;5012070;28;20430;-73
2023/03/18 03:31:26;;;;;;;3.87;2.83;;;12.50;99.90;;;;;;4996072;28;20504;-74
2023/03/18 03:33:52;;;;;;;4.30;3.00;;;12.50;99.90;;;;;;5013240;28;20408;-73
2023/03/18 03:36:21;;;;;;;5.77;3.40;;;12.50;99.90;;;;;;5012279;28;20431;-72
2023/03/18 03:38:50;;;;;;;5.50;3.73;;;12.50;99.90;;;;;;5012018;28;20442;-73
2023/03/18 03:41:16;;;;;;;5.40;3.30;;;12.50;99.90;;;;;;4995842;28;20535;-73
2023/03/18 03:43:42;;;;;;;5.17;3.43;;;12.50;99.90;;;;;;5012027;28;20470;-73
2023/03/18 03:46:09;;;;;;;5.43;3.20;;;12.50;99.90;;;;;;5013209;28;20447;-73
2023/03/18 03:48:38;;;;;;;5.20;3.43;;;12.50;99.90;;;;;;4995658;28;20513;-73
2023/03/18 03:51:09;;;;;;;5.83;3.23;;;12.50;99.90;;;;;;4995725;28;20540;-73
2023/03/18 03:53:35;;;;;;;6.17;4.33;;;12.40;99.90;;;;;;5012086;28;20407;-73
2023/03/18 03:56:02;;;;;;;5.27;4.07;;;12.50;99.90;;;;;;4995620;28;20440;-72
2023/03/18 03:58:30;;;;;;;5.63;3.70;;;12.50;99.90;;;;;;5014078;28;20402;-72
2023/03/18 04:00:57;;;;;;;4.70;3.33;;;12.40;99.90;;;;;;5015592;28;20431;-73
2023/03/18 04:03:25;;;;;;;5.30;3.60;;;12.40;99.90;;;;;;5015495;28;20828;-73
2023/03/18 04:05:51;;;;;;;6.50;3.67;;;12.40;99.90;;;;;;5015536;28;20403;-73
2023/03/18 04:08:21;;;;;;;6.30;3.20;;;12.40;99.90;;;;;;4999320;28;20408;-72
2023/03/18 04:10:50;;;;;;;3.77;3.33;;;12.40;99.90;;;;;;4999226;28;20431;-73
2023/03/18 04:13:18;;;;;;;5.53;4.07;;;12.40;99.90;;;;;;5015348;28;20411;-73
2023/03/18 04:15:47;;;;;;;5.43;3.80;;;12.40;99.90;;;;;;5015307;28;20446;-72
2023/03/18 04:18:17;;;;;;;6.73;4.10;;;12.40;99.90;;;;;;5015610;28;20419;-71
2023/03/18 04:20:48;;;;;;;7.13;4.53;;;12.40;99.90;;;;;;4999456;28;20540;-73
2023/03/18 04:23:32;;;;;;;7.77;4.10;;;12.40;99.90;;;;;;5015214;28;20945;-73
2023/03/18 04:25:59;;;;;;;4.77;3.60;;;12.40;99.90;;;;;;4998783;28;20436;-73
2023/03/18 04:28:25;;;;;;;6.83;3.87;;;12.40;99.90;;;;;;5014999;28;20446;-73
2023/03/18 04:30:51;;;;;;;5.30;3.83;;;12.30;99.90;;;;;;5015149;28;20410;-73
2023/03/18 04:33:18;;;;;;;4.80;3.60;;;12.40;99.90;;;;;;5015140;28;20921;-74
2023/03/18 04:35:46;;;;;;;5.77;3.50;;;12.30;99.90;;;;;;5014960;28;20495;-73
2023/03/18 04:38:16;;;;;;;9.17;5.00;;;12.30;99.90;;;;;;4998786;28;20479;-73
2023/03/18 04:40:45;;;;;;;7.60;3.30;;;12.40;99.90;;;;;;4998623;28;20679;-73
2023/03/18 04:43:14;;;;;;;6.17;4.20;;;12.30;99.90;;;;;;4998320;28;20437;-73
2023/03/18 04:45:43;;;;;;;7.00;4.40;;;12.30;99.90;;;;;;5014885;28;20422;-73
2023/03/18 04:48:10;;;;;;;6.27;4.27;;;12.30;99.90;;;;;;4998627;28;20400;-73
2023/03/18 04:50:42;;;;;;;6.10;4.13;;;12.30;99.90;;;;;;4999053;28;20949;-74
2023/03/18 04:53:15;;;;;;;4.33;3.93;;;12.30;99.90;;;;;;5014677;28;20475;-73
2023/03/18 04:55:45;;;;;;;7.73;3.97;;;12.30;99.90;;;;;;5014648;28;20401;-73
2023/03/18 04:58:16;;;;;;;5.77;4.00;;;12.30;99.90;;;;;;4998567;28;20412;-73
2023/03/18 05:00:52;;;;;;;5.33;4.37;;;12.30;99.90;;;;;;4999784;28;20444;-73
2023/03/18 05:03:26;;;;;;;5.43;3.70;;;12.30;99.90;;;;;;4999168;28;20460;-73
2023/03/18 05:05:52;;;;;;;9.80;3.87;;;12.30;99.90;;;;;;4998413;28;20423;-73
2023/03/18 05:08:28;;;;;;;4.60;3.80;;;12.30;99.90;;;;;;4998135;28;20500;-73
2023/03/18 05:10:55;;;;;;;6.37;3.70;;;12.30;99.90;;;;;;4998063;28;20786;-73
2023/03/18 05:13:21;;;;;;;5.27;4.13;;;12.30;99.90;;;;;;5014327;28;20821;-73
2023/03/18 05:15:48;;;;;;;8.33;4.40;;;12.30;99.90;;;;;;5014178;28;20404;-73
2023/03/18 05:18:21;;;;;;;4.07;3.63;;;12.30;99.90;;;;;;4998255;28;20575;-73
2023/03/18 05:20:49;;;;;;;6.50;3.93;;;12.30;99.90;;;;;;5014207;28;20401;-73
2023/03/18 05:23:21;;;;;;;5.33;3.77;;;12.30;99.90;;;;;;4997603;28;20507;-73
2023/03/18 05:25:53;;;;;;;7.00;4.20;;;12.30;99.90;;;;;;4998007;28;21051;-73
2023/03/18 05:28:22;;;;;;;5.10;3.70;;;12.30;99.90;;;;;;4997791;28;20487;-73
2023/03/18 05:31:06;;;;;;;5.73;3.90;;;12.30;99.90;;;;;;4998295;28;20448;-73
2023/03/18 05:33:36;;;;;;;6.17;4.50;;;12.30;99.90;;;;;;5014076;28;20401;-73
2023/03/18 05:36:03;;;;;;;4.83;3.90;;;12.30;99.90;;;;;;5013891;28;20419;-73
2023/03/18 05:38:35;;;;;;;7.00;4.10;;;12.20;99.90;;;;;;5013751;28;20846;-72
2023/03/18 05:41:05;;;;;;;5.13;3.90;;;12.20;99.90;;;;;;4997641;28;20467;-73
2023/03/18 05:43:38;;;;;;;5.27;3.70;;;12.30;99.90;;;;;;4997119;28;20495;-73
2023/03/18 05:46:04;;;;;;;6.70;3.80;;;12.20;99.90;;;;;;5013690;28;20492;-73
2023/03/18 05:48:53;;;;;;;7.73;4.20;;;12.20;99.90;;;;;;5013282;28;20471;-73
2023/03/18 05:51:21;;;;;;;5.30;3.53;;;12.20;99.90;;;;;;5013485;28;20417;-73
2023/03/18 05:53:50;;;;;;;5.77;3.20;;;12.20;99.90;;;;;;4997390;28;20432;-73
2023/03/18 05:56:25;;;;;;;4.07;3.57;;;12.20;99.90;;;;;;5013654;28;20402;-73
2023/03/18 05:58:56;;;;;;;4.90;3.60;;;12.20;99.90;;;;;;5013252;28;20450;-73
2023/03/18 06:01:40;;;;;;;7.93;3.90;;;12.20;99.90;;;;;;5013275;28;20522;-73
2023/03/18 06:04:07;;;;;;;5.27;4.40;;;12.20;99.90;;;;;;4996890;28;20603;-73
2023/03/18 06:06:35;;;;;;;5.13;3.70;;;12.20;99.90;;;;;;5013304;28;20502;-73
2023/03/18 06:09:03;;;;;;;6.40;3.80;;;12.20;99.90;;;;;;5013193;28;20870;-73
2023/03/18 06:11:31;;;;;;;5.43;3.50;;;12.20;99.90;;;;;;4997027;28;20792;-73
2023/03/18 06:14:03;;;;;;;5.57;3.80;;;12.20;99.90;;;;;;5013171;28;20440;-73
2023/03/18 06:16:30;;;;;;;5.67;3.47;;;12.20;99.90;;;;;;4996824;28;20401;-73
2023/03/18 06:18:59;;;;;;;5.33;3.23;;;12.20;99.90;;;;;;4996769;28;20444;-73
2023/03/18 06:21:27;;;;;;;6.50;3.97;;;12.20;99.90;;;;;;5012668;28;20453;-73
2023/03/18 06:23:56;;;;;;;8.13;3.80;;;12.20;99.90;;;;;;5012901;28;20440;-73
2023/03/18 06:26:25;;;;;;;5.70;3.80;;;12.20;99.90;;;;;;4996775;28;20406;-73
2023/03/18 06:28:55;;;;;;;4.50;3.90;;;12.20;99.90;;;;;;4996628;28;20459;-73
2023/03/18 06:31:26;;;;;;;5.27;3.60;;;12.20;99.90;;;;;;4996729;28;20412;-73
2023/03/18 06:33:52;;;;;;;5.73;3.83;;;12.20;99.90;;;;;;5012790;28;20448;-73
2023/03/18 06:36:20;;;;;;;6.00;4.20;;;12.20;99.90;;;;;;4996708;28;20409;-73
2023/03/18 06:38:49;;;;;;;4.07;3.70;;;12.20;99.90;;;;;;4996431;28;20452;-73
2023/03/18 06:41:16;;;;;;;5.70;3.53;;;12.20;99.90;;;;;;4996202;28;20764;-73
2023/03/18 06:43:58;;;;;;;5.23;3.63;;;12.20;99.90;;;;;;5013828;28;20452;-73
2023/03/18 06:46:29;;;;;;;5.47;3.60;;;12.20;99.90;;;;;;4996558;28;20425;-73
2023/03/18 06:48:55;;;;;;;5.23;4.37;;;12.20;99.90;;;;;;4996436;28;20444;-73
2023/03/18 06:51:29;;;;;;;4.20;3.57;;;12.10;99.90;;;;;;4997070;28;20913;-73
2023/03/18 06:53:55;;;;;;;4.90;3.70;;;12.10;99.90;;;;;;5012559;28;20434;-73
2023/03/18 06:56:32;;;;;;;5.77;4.40;;;12.20;99.90;;;;;;4993297;28;20423;-73
2023/03/18 06:59:09;;;;;;;4.80;4.00;;;12.20;99.90;;;;;;4992960;28;20449;-73
2023/03/18 07:01:38;;;;;;;6.87;5.07;;;12.20;99.90;;;;;;5008865;28;20408;-73
2023/03/18 07:04:12;;;;;;;6.70;4.57;;;12.10;99.90;;;;;;4992986;28;20547;-72
2023/03/18 07:06:38;;;;;;;5.10;3.93;;;12.10;99.90;;;;;;4976695;28;20408;-73
2023/03/18 07:09:13;;;;;;;6.30;4.03;;;12.10;99.90;;;;;;4992838;28;20456;-73
2023/03/18 07:11:40;;;;;;;6.73;3.90;;;12.10;99.90;;;;;;4992980;28;20445;-73
2023/03/18 07:14:13;;;;;;;7.17;3.80;;;12.20;99.90;;;;;;4993628;28;20431;-72
2023/03/18 07:16:40;;;;;;;4.20;3.40;;;12.10;99.90;;;;;;4992616;28;20844;-73
2023/03/18 07:19:06;;;;;;;4.10;3.30;;;12.10;99.90;;;;;;4992587;28;20432;-73
2023/03/18 07:21:35;;;;;;;3.70;2.90;;;12.10;99.90;;;;;;4992566;28;20411;-73
2023/03/18 07:24:07;;;;;;;3.80;3.23;;;12.20;99.90;;;;;;4992578;28;20476;-73
2023/03/18 07:26:37;;;;;;;4.37;3.50;;;12.20;99.90;;;;;;4992063;28;20805;-72
2023/03/18 07:29:09;;;;;;;5.50;3.33;;;12.10;99.90;;;;;;4991971;28;20442;-72
2023/03/18 07:31:40;;;;;;;5.53;3.50;;;12.20;99.90;;;;;;5000013;28;20420;-72
2023/03/18 07:34:08;;;;;;;6.50;4.30;;;12.10;99.90;;;;;;5007699;28;20462;-72
2023/03/18 07:36:40;;;;;;;5.27;3.57;;;12.10;99.90;;;;;;5016076;28;20788;-72
2023/03/18 07:39:09;;;;;;;6.10;4.43;;;12.10;99.90;;;;;;5015802;28;20458;-72
2023/03/18 07:41:35;;;;;;;4.90;4.40;;;12.20;99.90;;;;;;5016668;28;21011;-72
2023/03/18 07:44:06;;;;;;;6.77;4.30;;;12.10;99.90;;;;;;5015599;28;21027;-71
2023/03/18 07:46:35;;;;;;;7.10;3.77;;;12.10;99.90;;;;;;5015659;28;20597;-72
2023/03/18 07:49:06;;;;;;;4.37;3.93;;;12.20;99.90;;;;;;5015383;28;20432;-72
2023/03/18 07:51:32;;;;;;;7.20;4.23;;;12.20;99.90;;;;;;4982149;28;20524;-71
2023/03/18 07:54:02;;;;;;;5.43;4.67;;;12.20;99.90;;;;;;5015331;28;20449;-78
2023/03/18 07:56:28;;;;;;;6.37;4.50;;;12.20;99.90;;;;;;5015698;28;20451;-72
2023/03/18 07:58:57;;;;;;;4.33;3.90;;;12.20;99.90;;;;;;5001927;28;20783;-73
2023/03/18 08:01:24;;;;;;;5.50;4.27;;;12.20;99.90;;;;;;5030343;28;20401;-72
2023/03/18 08:03:53;;;;;;;4.60;4.10;;;12.20;99.90;;;;;;5014294;28;20482;-72
2023/03/18 08:06:21;;;;;;;6.90;3.90;;;12.20;99.90;;;;;;5007950;28;20466;-72
2023/03/18 08:08:49;;;;;;;7.33;4.03;;;12.20;99.90;;;;;;5012647;28;20471;-72
2023/03/18 08:11:16;;;;;;;5.90;3.97;;;12.20;99.90;;;;;;5013581;28;20454;-72
2023/03/18 08:13:42;;;;;;;6.30;5.00;;;12.20;99.90;;;;;;5012668;28;20428;-72
2023/03/18 08:16:12;;;;;;;10.97;4.70;;;12.30;99.90;;;;;;5013095;28;20514;-72
2023/03/18 08:18:40;;;;;;;8.57;6.23;;;12.30;99.90;;;;;;5012477;28;20962;-72
2023/03/18 08:21:08;;;;;;;6.80;4.53;;;12.30;99.90;;;;;;4980254;28;20448;-72
2023/03/18 08:23:34;;;;;;;8.67;4.17;;;12.30;99.90;;;;;;5011303;28;20988;-72
2023/03/18 08:26:03;;;;;;;6.30;4.40;;;12.30;99.90;;;;;;5011552;28;21305;-72
2023/03/18 08:28:29;;;;;;;5.60;4.50;;;12.30;99.90;;;;;;5029288;28;20421;-72
2023/03/18 08:30:56;;;;;;;6.47;4.60;;;12.40;99.90;;;;;;5013322;28;20448;-71
2023/03/18 08:33:24;;;;;;;5.17;4.33;;;12.40;99.90;;;;;;4997807;28;20438;-72
2023/03/18 08:35:50;;;;;;;6.23;4.90;;;12.40;99.90;;;;;;4998106;28;20415;-72
2023/03/18 08:38:19;;;;;;;7.30;5.50;;;12.40;99.90;;;;;;5015592;28;20420;-72
2023/03/18 08:40:46;;;;;;;5.03;4.07;;;12.40;99.90;;;;;;5013556;28;20814;-72
2023/03/18 08:43:12;;;;;;;5.30;3.90;;;12.40;99.90;;;;;;5030140;28;20463;-72
2023/03/18 08:45:41;;;;;;;4.63;3.97;;;12.40;99.90;;;;;;5015345;28;20441;-72
2023/03/18 08:48:07;;;;;;;5.20;4.50;;;12.50;99.90;;;;;;4981793;28;20946;-72
2023/03/18 08:50:36;;;;;;;7.70;4.73;;;12.50;99.90;;;;;;4981651;28;20451;-72
2023/03/18 08:53:03;;;;;;;4.67;4.13;;;12.50;99.90;;;;;;4997503;28;20568;-72
2023/03/18 08:55:35;;;;;;;6.00;3.93;;;12.60;99.90;;;;;;5015252;28;20795;-72
2023/03/18 08:58:05;;;;;;;3.70;3.40;;;12.60;99.90;;;;;;4997530;28;20578;-71
2023/03/18 09:00:33;;;;;;;3.50;3.20;;;12.60;99.90;;;;;;4997687;28;20563;-72
2023/03/18 09:02:59;;;;;;;4.80;3.40;;;12.60;99.90;;;;;;5014763;28;20470;-72
2023/03/18 09:05:27;;;;;;;5.50;4.00;;;12.60;99.90;;;;;;4997613;28;20933;-72
2023/03/18 09:07:59;;;;;;;5.50;4.40;;;12.70;99.90;;;;;;5030332;28;20429;-72
2023/03/18 09:10:29;;;;;;;4.10;3.70;;;12.70;99.90;;;;;;5013380;28;20454;-72
2023/03/18 09:12:57;;;;;;;3.90;3.40;;;12.70;99.90;;;;;;4981592;28;20444;-72
2023/03/18 09:15:26;;;;;;;4.47;3.40;;;12.70;99.90;;;;;;5013524;28;20403;-72
2023/03/18 09:17:52;;;;;;;6.00;3.37;;;12.70;99.90;;;;;;5014005;28;20436;-72
2023/03/18 09:20:21;;;;;;;5.33;3.30;;;12.80;99.90;;;;;;5013477;28;20437;-72
2023/03/18 09:22:47;;;;;;;3.97;2.90;;;12.80;99.90;;;;;;5013349;28;20448;-72
2023/03/18 09:25:15;;;;;;;6.50;3.40;;;12.80;99.90;;;;;;5014463;28;20486;-72
2023/03/18 09:27:42;;;;;;;4.27;3.50;;;12.80;99.90;;;;;;4981003;28;20426;-72
2023/03/18 09:30:14;;;;;;;4.77;3.83;;;12.90;99.90;;;;;;4997039;28;20467;-72
2023/03/18 09:32:40;;;;;;;5.23;3.37;;;13.00;99.90;;;;;;5013209;28;20443;-72
2023/03/18 09:35:11;;;;;;;5.77;3.87;;;13.20;99.90;;;;;;5013609;28;20416;-72
2023/03/18 09:37:40;;;;;;;4.43;3.30;;;13.30;99.90;;;;;;4980284;28;20459;-72
2023/03/18 09:40:19;;;;;;;4.87;3.60;;;13.40;99.90;;;;;;5012855;28;20430;-72
2023/03/18 09:43:04;;;;;;;5.40;3.00;;;13.40;99.90;;;;;;5013434;28;20450;-72
2023/03/18 09:45:44;;;;;;;4.23;3.83;;;13.40;99.90;;;;;;5012599;28;20451;-72
2023/03/18 09:48:37;;;;;;;4.07;3.30;;;13.40;99.90;;;;;;5011735;28;20949;-72
2023/03/18 09:51:33;;;;;;;5.60;3.20;;;13.40;99.90;;;;;;4995924;28;20546;-73
2023/03/18 09:54:12;;;;;;;4.33;3.20;;;13.50;99.90;;;;;;4996354;28;20541;-72
2023/03/18 09:56:41;;;;;;;5.37;2.80;;;13.50;99.90;;;;;;5012697;28;20915;-72
2023/03/18 09:59:20;;;;;;;4.50;2.80;;;13.50;99.90;;;;;;4995684;28;20466;-72
2023/03/18 10:01:52;;;;;;;4.80;3.73;;;13.50;99.90;;;;;;5011741;28;20439;-72
2023/03/18 10:04:39;;;;;;;4.57;3.10;;;13.50;99.90;;;;;;5012342;28;20411;-72
2023/03/18 10:07:16;;;;;;;2.90;2.30;;;13.50;99.90;;;;;;4980179;28;20968;-72
2023/03/18 10:09:52;;;;;;;5.70;2.50;;;13.50;99.90;;;;;;4979510;28;20473;-72
2023/03/18 10:12:40;;;;;;;2.57;2.37;;;13.50;99.90;;;;;;4996091;28;20416;-72
2023/03/18 10:15:27;;;;;;;3.37;2.70;;;13.50;99.90;;;;;;5028595;28;20426;-72
2023/03/18 10:18:26;;;;;;;3.53;2.50;;;13.60;99.90;;;;;;4995606;28;20407;-72
2023/03/18 10:21:06;;;;;;;3.77;2.80;;;13.60;99.90;;;;;;5011883;28;20423;-72
2023/03/18 10:23:45;;;;;;;3.10;2.53;;;13.60;99.90;;;;;;5013054;28;20506;-72
2023/03/18 10:26:19;;;;;;;3.53;2.70;;;13.70;99.90;;;;;;4995610;28;20406;-72
2023/03/18 10:29:00;;;;;;;4.33;2.60;;;13.70;99.90;;;;;;5011802;28;20451;-72
2023/03/18 10:31:58;;;;;;;2.70;2.50;;;13.70;99.90;;;;;;5012175;28;20444;-72
2023/03/18 10:34:43;;;;;;;3.47;2.53;;;13.70;99.90;;;;;;4974859;28;20456;-72
2023/03/18 10:37:36;;;;;;;3.37;2.70;;;13.80;99.90;;;;;;5011596;28;20411;-72
2023/03/18 10:40:16;;;;;;;3.73;2.37;;;13.80;99.90;;;;;;5012720;28;20442;-72
2023/03/18 10:42:49;;;;;;;2.93;2.60;;;13.80;99.90;;;;;;4994621;28;20470;-72
2023/03/18 10:45:30;;;;;;;4.17;2.67;;;13.80;99.90;;;;;;4995287;28;20416;-72
2023/03/18 10:48:09;;;;;;;4.90;3.20;;;13.90;99.90;;;;;;5011763;28;20421;-72
2023/03/18 10:50:42;;;;;;;2.70;2.50;;;13.90;99.90;;;;;;5027401;28;20962;-72
2023/03/18 10:53:28;;;;;;;3.47;2.50;;;13.90;99.90;;;;;;5012677;28;20455;-72
2023/03/18 10:56:05;;;;;;;4.40;2.70;;;14.00;99.90;;;;;;5011445;28;20412;-72
2023/03/18 10:58:31;;;;;;;3.57;2.77;;;14.00;99.90;;;;;;4994908;28;20424;-72
2023/03/18 11:00:59;;;;;;;2.93;2.30;;;14.00;99.90;;;;;;5011185;28;20923;-72
2023/03/18 11:04:05;;;;;;;5.50;2.70;;;14.10;99.90;;;;;;5011306;28;21035;-72
2023/03/18 11:06:31;;;;;;;5.43;2.40;;;14.10;99.90;;;;;;5005472;28;20948;-72
2023/03/18 11:09:10;;;;;;;3.53;2.33;;;14.10;99.90;;;;;;4994760;28;20933;-72
2023/03/18 11:11:45;;;;;;;5.80;2.30;;;14.20;99.90;;;;;;4979319;28;20485;-72
2023/03/18 11:14:23;;;;;;;2.40;1.97;;;14.20;99.90;;;;;;5012335;28;20507;-72
2023/03/18 11:17:17;;;;;;;3.20;2.00;;;14.20;99.90;;;;;;5011073;28;20405;-72
2023/03/18 11:19:48;;;;;;;5.80;3.50;;;14.20;99.90;;;;;;5104093;22;20876;-73
2023/03/18 11:22:23;;;;;;;3.27;2.20;;;14.30;99.90;;;;;;5051296;28;20417;-72
2023/03/18 11:25:13;;;;;;;2.70;2.20;;;14.30;99.90;;;;;;5018616;28;20495;-73
2023/03/18 11:27:39;;;;;;;2.17;2.00;;;14.30;99.90;;;;;;5035351;28;20446;-73
2023/03/18 11:30:24;;;;;;;4.73;2.30;;;14.40;99.90;;;;;;5035073;28;20455;-73
2023/03/18 11:32:53;;;;;;;2.90;2.23;;;14.40;99.90;;;;;;5034982;28;20403;-73
2023/03/18 11:35:23;;;;;;;2.30;2.07;;;14.40;99.90;;;;;;5035157;28;20411;-73
2023/03/18 11:37:54;;;;;;;3.50;2.40;;;14.50;99.90;;;;;;5035837;28;20968;-73
2023/03/18 11:40:26;;;;;;;3.97;2.03;;;14.50;99.90;;;;;;5018555;28;20453;-73
2023/03/18 11:43:01;;;;;;;3.13;2.00;;;14.50;99.90;;;;;;5018566;28;20499;-73
2023/03/18 11:45:52;;;;;;;3.87;2.30;;;14.60;99.90;;;;;;5034763;28;20402;-73
2023/03/18 11:48:20;;;;;;;2.77;2.23;;;14.60;99.90;;;;;;5034352;28;20410;-73
2023/03/18 11:50:56;;;;;;;3.30;2.37;;;14.60;99.90;;;;;;5057522;28;20405;-74
2023/03/18 11:53:30;;;;;;;2.70;2.00;;;14.70;99.90;;;;;;5038713;28;20216;-74
2023/03/18 11:56:16;;;;;;;2.93;2.03;;;14.80;99.90;;;;;;5067400;28;20795;-73
2023/03/18 11:59:13;;;;;;;4.80;1.83;;;14.90;99.90;;;;;;5054292;28;20805;-73
2023/03/18 12:02:11;;;;;;;2.93;2.03;;;14.90;99.90;;;;;;5038096;28;20498;-73
2023/03/18 12:04:51;;;;;;;2.80;1.30;;;14.90;99.90;;;;;;5015674;28;20455;-73
2023/03/18 12:07:35;;;;;;;3.00;1.60;;;15.00;99.90;;;;;;5054886;28;20962;-73
2023/03/18 12:10:23;;;;;;;2.70;1.93;;;15.00;99.90;;;;;;5054978;28;20428;-73
2023/03/18 12:13:13;;;;;;;3.63;2.00;;;15.00;99.90;;;;;;5038368;28;20425;-73
2023/03/18 12:15:46;;;;;;;2.43;1.90;;;15.10;99.90;;;;;;5070557;28;20411;-70
2023/03/18 12:18:33;;;;;;;2.07;1.87;;;15.10;99.90;;;;;;5070947;28;20412;-70
2023/03/18 12:21:31;;;;;;;1.97;1.57;;;15.10;99.90;;;;;;5056567;28;20402;-70
2023/03/18 12:24:15;;;;;;;2.00;1.70;;;15.10;99.90;;;;;;5038521;28;20459;-70
2023/03/18 12:26:56;;;;;;;3.00;2.07;;;15.20;99.90;;;;;;5064061;28;20543;-70
2023/03/18 12:29:41;;;;;;;3.10;2.00;;;15.20;99.90;;;;;;5056447;28;20456;-70
2023/03/18 12:32:32;;;;;;;2.63;1.90;;;15.20;99.90;;;;;;5039844;28;20439;-70
2023/03/18 12:35:40;;;;;;;2.30;2.00;;;15.20;99.90;;;;;;5039372;28;20762;-70
2023/03/18 12:38:35;;;;;;;2.23;1.67;;;15.20;99.90;;;;;;5073133;28;20468;-70
2023/03/18 12:41:09;;;;;;;3.07;1.87;;;15.30;99.90;;;;;;5073357;28;20430;-70
2023/03/18 12:44:00;;;;;;;3.00;1.93;;;15.20;99.90;;;;;;5056415;28;20451;-70
2023/03/18 12:46:39;;;;;;;1.93;1.70;;;15.30;99.90;;;;;;5039894;28;20427;-70
2023/03/18 12:49:15;;;;;;;2.43;2.10;;;15.30;99.90;;;;;;5056353;28;21099;-70
2023/03/18 12:52:03;;;;;;;3.33;2.00;;;15.30;99.90;;;;;;5055842;28;20485;-70
2023/03/18 12:54:39;;;;;;;3.60;2.27;;;15.30;99.90;;;;;;5055755;28;20410;-70
2023/03/18 12:57:29;;;;;;;4.43;2.90;;;15.30;99.90;;;;;;5036052;28;20498;-71
2023/03/18 13:00:09;;;;;;;3.80;2.60;;;15.40;99.90;;;;;;5036109;28;21012;-71
2023/03/18 13:02:55;;;;;;;4.43;2.43;;;15.40;99.90;;;;;;5035812;28;20473;-71
2023/03/18 13:05:44;;;;;;;2.53;2.33;;;15.40;99.90;;;;;;5035900;28;20439;-71
2023/03/18 13:08:19;;;;;;;5.27;2.57;;;15.40;99.90;;;;;;5052785;28;20415;-71
2023/03/18 13:10:56;;;;;;;3.00;2.40;;;15.50;99.90;;;;;;5036487;28;20527;-71
2023/03/18 13:13:27;;;;;;;2.80;2.60;;;15.40;99.90;;;;;;5053793;28;20402;-71
2023/03/18 13:15:54;;;;;;;2.77;2.10;;;15.50;99.90;;;;;;5052771;28;20855;-71
2023/03/18 13:18:44;;;;;;;3.30;2.90;;;15.50;99.90;;;;;;5035900;28;20799;-71